createdAt,value
2018-12-29T00:01:16.267Z,4.15
2018-12-29T00:04:38.997Z,4.21
2018-12-29T00:07:54.673Z,4.20
2018-12-29T00:11:10.317Z,4.19
2018-12-29T00:14:32.691Z,4.25
2018-12-29T00:17:48.646Z,4.22
2018-12-29T00:21:11.472Z,4.27
2018-12-29T00:24:27.194Z,4.12
2018-12-29T00:27:43.038Z,3.96
2018-12-29T00:31:05.801Z,4.41
2018-12-29T00:34:21.701Z,4.32
2018-12-29T00:37:44.385Z,4.31
2018-12-29T00:41:00.232Z,3.89
2018-12-29T00:44:22.629Z,4.28
2018-12-29T00:47:45.023Z,4.12
2018-12-29T00:51:00.937Z,4.24
2018-12-29T00:54:23.401Z,4.27
2018-12-29T00:57:38.894Z,4.28
2018-12-29T01:01:01.270Z,4.22
2018-12-29T01:04:19.203Z,4.29
2018-12-29T01:07:35.404Z,4.21
2018-12-29T01:10:50.640Z,4.23
2018-12-29T01:14:06.755Z,4.31
2018-12-29T01:21:05.576Z,4.24
2018-12-29T01:24:20.850Z,4.22
2018-12-29T01:27:38.306Z,4.16
2018-12-29T01:31:01.060Z,4.23
2018-12-29T01:34:16.064Z,4.25
2018-12-29T01:37:38.461Z,3.91
2018-12-29T01:40:53.672Z,4.37
2018-12-29T01:44:16.939Z,4.37
2018-12-29T01:47:32.332Z,4.31
2018-12-29T01:50:55.025Z,4.43
2018-12-29T01:54:10.308Z,4.41
2018-12-29T01:57:33.062Z,4.46
2018-12-29T02:00:49.001Z,4.42
2018-12-29T02:04:11.407Z,4.35
2018-12-29T02:07:26.623Z,4.43
2018-12-29T02:10:42.180Z,4.29
2018-12-29T02:14:05.400Z,4.24
2018-12-29T02:17:21.112Z,3.85
2018-12-29T02:20:37.250Z,4.34
2018-12-29T02:24:00.262Z,4.38
2018-12-29T02:27:15.618Z,4.42
2018-12-29T02:30:30.881Z,4.43
2018-12-29T02:33:53.265Z,4.47
2018-12-29T02:36:56.202Z,4.50
2018-12-29T02:40:18.634Z,4.44
2018-12-29T02:43:33.820Z,4.37
2018-12-29T02:46:56.813Z,4.40
2018-12-29T02:50:12.705Z,4.37
2018-12-29T02:53:35.387Z,4.35
2018-12-29T02:56:51.123Z,4.31
2018-12-29T03:00:13.516Z,4.45
2018-12-29T03:03:28.850Z,4.31
2018-12-29T03:06:44.052Z,4.39
2018-12-29T03:09:59.289Z,4.30
2018-12-29T03:13:21.709Z,3.88
2018-12-29T03:16:38.944Z,4.27
2018-12-29T03:20:01.693Z,4.30
2018-12-29T03:23:17.269Z,4.22
2018-12-29T03:26:39.987Z,4.28
2018-12-29T03:29:55.240Z,4.18
2018-12-29T03:33:17.651Z,3.98
2018-12-29T03:36:33.816Z,4.24
2018-12-29T03:39:56.375Z,4.15
2018-12-29T03:43:11.889Z,3.71
2018-12-29T03:46:34.963Z,4.17
2018-12-29T03:49:50.362Z,4.10
2018-12-29T03:53:13.256Z,4.13
2018-12-29T03:56:16.192Z,4.11
2018-12-29T03:59:38.556Z,4.02
2018-12-29T04:02:53.821Z,4.15
2018-12-29T04:06:09.495Z,4.10
2018-12-29T04:09:44.636Z,4.08
2018-12-29T04:13:00.575Z,4.12
2018-12-29T04:16:23.291Z,4.11
2018-12-29T04:19:39.001Z,4.09
2018-12-29T04:22:54.209Z,4.08
2018-12-29T04:26:16.589Z,4.07
2018-12-29T04:29:32.141Z,4.22
2018-12-29T04:32:54.612Z,4.29
2018-12-29T04:36:10.064Z,4.25
2018-12-29T04:39:25.363Z,4.28
2018-12-29T04:42:48.053Z,4.27
2018-12-29T04:46:05.364Z,4.31
2018-12-29T04:49:28.242Z,3.99
2018-12-29T04:52:44.349Z,4.35
2018-12-29T04:55:59.917Z,4.40
2018-12-29T04:59:22.405Z,4.33
2018-12-29T05:02:38.489Z,4.38
2018-12-29T05:05:54.368Z,4.33
2018-12-29T05:09:17.231Z,4.29
2018-12-29T05:12:32.834Z,4.35
2018-12-29T05:15:48.692Z,4.38
2018-12-29T05:19:11.712Z,4.35
2018-12-29T05:22:28.261Z,4.29
2018-12-29T05:25:51.046Z,4.36
2018-12-29T05:28:54.613Z,4.42
2018-12-29T05:32:17.023Z,4.39
2018-12-29T05:35:32.133Z,4.36
2018-12-29T05:38:54.907Z,3.90
2018-12-29T05:42:10.277Z,4.36
2018-12-29T05:45:33.005Z,4.35
2018-12-29T05:48:48.870Z,4.47
2018-12-29T05:52:11.271Z,4.37
2018-12-29T05:55:26.642Z,4.34
2018-12-29T05:58:49.785Z,4.42
2018-12-29T06:02:04.803Z,4.45
2018-12-29T06:05:27.504Z,4.39
2018-12-29T06:08:43.241Z,4.40
2018-12-29T06:12:05.734Z,4.47
2018-12-29T06:15:21.644Z,4.47
2018-12-29T06:18:44.037Z,4.57
2018-12-29T06:21:59.702Z,4.53
2018-12-29T06:25:22.101Z,4.15
2018-12-29T06:28:37.986Z,4.58
2018-12-29T06:32:00.688Z,4.56
2018-12-29T06:35:17.793Z,4.56
2018-12-29T06:38:40.555Z,4.70
2018-12-29T06:41:56.143Z,4.71
2018-12-29T06:45:19.549Z,4.59
2018-12-29T06:48:34.851Z,4.73
2018-12-29T06:51:58.580Z,4.54
2018-12-29T06:55:14.483Z,4.35
2018-12-29T06:58:37.168Z,4.62
2018-12-29T07:01:53.324Z,4.60
2018-12-29T07:05:17.700Z,4.63
2018-12-29T07:08:33.101Z,4.52
2018-12-29T07:11:55.487Z,4.69
2018-12-29T07:15:11.565Z,4.14
2018-12-29T07:18:34.257Z,4.13
2018-12-29T07:21:49.989Z,4.61
2018-12-29T07:25:12.721Z,4.75
2018-12-29T07:28:28.608Z,4.68
2018-12-29T07:31:51.646Z,4.73
2018-12-29T07:35:07.490Z,4.84
2018-12-29T07:38:30.665Z,4.78
2018-12-29T07:41:33.591Z,4.77
2018-12-29T07:44:36.893Z,4.82
2018-12-29T07:47:39.856Z,4.73
2018-12-29T07:50:43.103Z,4.73
2018-12-29T07:53:46.708Z,4.72
2018-12-29T07:56:50.308Z,4.81
2018-12-29T07:59:54.612Z,4.76
2018-12-29T08:02:57.527Z,4.84
2018-12-29T08:06:00.427Z,4.83
2018-12-29T08:09:05.465Z,4.83
2018-12-29T08:12:08.794Z,4.80
2018-12-29T08:15:11.691Z,4.91
2018-12-29T08:18:15.351Z,4.85
2018-12-29T08:21:18.789Z,4.85
2018-12-29T08:24:22.190Z,4.85
2018-12-29T08:27:25.445Z,4.96
2018-12-29T08:30:28.342Z,4.94
2018-12-29T08:33:31.376Z,4.94
2018-12-29T08:36:34.611Z,4.95
2018-12-29T08:39:37.895Z,4.97
2018-12-29T08:42:40.800Z,5.06
2018-12-29T08:45:44.204Z,4.92
2018-12-29T08:48:47.130Z,4.99
2018-12-29T08:51:50.697Z,5.14
2018-12-29T08:54:53.975Z,5.12
2018-12-29T08:57:57.375Z,5.24
2018-12-29T09:01:00.591Z,5.39
2018-12-29T09:04:03.518Z,5.29
2018-12-29T09:07:06.753Z,5.28
2018-12-29T09:10:09.772Z,5.27
2018-12-29T09:13:13.032Z,5.37
2018-12-29T09:16:16.307Z,5.45
2018-12-29T09:19:26.998Z,5.21
2018-12-29T09:22:24.427Z,5.25
2018-12-29T09:25:27.348Z,5.30
2018-12-29T09:28:31.484Z,5.15
2018-12-29T09:31:34.753Z,5.23
2018-12-29T09:34:38.055Z,5.30
2018-12-29T09:37:41.396Z,5.36
2018-12-29T09:40:45.428Z,5.44
2018-12-29T09:43:48.403Z,5.45
2018-12-29T09:46:51.814Z,5.33
2018-12-29T09:49:54.883Z,5.21
2018-12-29T09:52:57.886Z,5.31
2018-12-29T09:56:00.817Z,5.33
2018-12-29T09:59:03.715Z,5.27
2018-12-29T10:02:06.698Z,5.39
2018-12-29T10:05:09.975Z,5.29
2018-12-29T10:08:13.368Z,5.42
2018-12-29T10:11:16.428Z,5.45
2018-12-29T10:18:43.201Z,5.51
2018-12-29T10:22:01.792Z,5.69
2018-12-29T10:25:32.928Z,5.69
2018-12-29T10:28:35.856Z,5.58
2018-12-29T10:31:38.773Z,5.53
2018-12-29T10:34:41.703Z,5.71
2018-12-29T10:37:44.763Z,5.88
2018-12-29T10:40:47.679Z,5.85
2018-12-29T10:43:50.956Z,5.91
2018-12-29T10:46:53.862Z,5.78
2018-12-29T10:49:56.822Z,5.91
2018-12-29T10:52:59.686Z,5.80
2018-12-29T10:56:02.605Z,5.96
2018-12-29T10:59:05.851Z,5.95
2018-12-29T11:02:09.683Z,5.79
2018-12-29T11:05:12.700Z,5.94
2018-12-29T11:08:16.071Z,5.78
2018-12-29T11:11:19.409Z,5.93
2018-12-29T11:14:22.699Z,5.83
2018-12-29T11:17:25.583Z,5.69
2018-12-29T11:20:29.599Z,5.63
2018-12-29T11:23:32.492Z,5.77
2018-12-29T11:26:35.964Z,5.86
2018-12-29T11:29:39.340Z,5.88
2018-12-29T11:32:42.651Z,5.94
2018-12-29T11:35:46.430Z,6.01
2018-12-29T11:38:49.748Z,5.91
2018-12-29T11:41:53.087Z,6.05
2018-12-29T11:44:55.972Z,5.85
2018-12-29T11:47:59.609Z,6.04
2018-12-29T11:51:02.527Z,5.94
2018-12-29T11:54:06.931Z,5.95
2018-12-29T11:57:10.311Z,5.93
2018-12-29T12:00:13.528Z,5.98
2018-12-29T12:03:16.535Z,5.96
2018-12-29T12:06:20.047Z,5.92
2018-12-29T12:09:23.363Z,5.99
2018-12-29T12:12:26.967Z,5.92
2018-12-29T12:15:29.875Z,6.12
2018-12-29T12:18:32.800Z,6.04
2018-12-29T12:21:36.055Z,5.99
2018-12-29T12:24:39.362Z,6.09
2018-12-29T12:27:42.262Z,6.02
2018-12-29T12:30:45.926Z,6.03
2018-12-29T12:33:49.241Z,6.00
2018-12-29T12:36:53.839Z,5.95
2018-12-29T12:39:57.188Z,6.14
2018-12-29T12:43:00.074Z,6.18
2018-12-29T12:46:03.730Z,6.16
2018-12-29T12:49:06.922Z,6.21
2018-12-29T12:52:09.820Z,6.24
2018-12-29T12:55:12.845Z,6.37
2018-12-29T12:58:15.839Z,6.39
2018-12-29T13:01:19.157Z,6.27
2018-12-29T13:04:22.057Z,6.26
2018-12-29T13:07:25.406Z,6.51
2018-12-29T13:10:28.326Z,6.35
2018-12-29T13:13:31.237Z,6.27
2018-12-29T13:16:34.643Z,6.13
2018-12-29T13:19:37.832Z,6.29
2018-12-29T13:22:40.754Z,6.20
2018-12-29T13:25:43.988Z,6.25
2018-12-29T13:28:48.206Z,6.45
2018-12-29T13:31:51.139Z,6.45
2018-12-29T13:34:54.416Z,6.35
2018-12-29T13:37:57.540Z,6.21
2018-12-29T13:41:00.452Z,6.26
2018-12-29T13:44:03.365Z,6.23
2018-12-29T13:47:06.986Z,6.19
2018-12-29T13:50:10.585Z,6.40
2018-12-29T13:53:13.876Z,6.34
2018-12-29T13:56:17.087Z,6.24
2018-12-29T13:59:21.718Z,6.43
2018-12-29T14:02:25.614Z,6.34
2018-12-29T14:05:28.538Z,6.30
2018-12-29T14:08:31.822Z,6.31
2018-12-29T14:11:35.450Z,6.34
2018-12-29T14:14:38.358Z,6.32
2018-12-29T14:17:41.985Z,6.17
2018-12-29T14:20:44.902Z,6.28
2018-12-29T14:23:48.920Z,6.30
2018-12-29T14:26:52.159Z,6.21
2018-12-29T14:29:55.071Z,6.19
2018-12-29T14:32:58.683Z,6.21
2018-12-29T14:36:02.419Z,6.14
2018-12-29T14:39:06.647Z,6.19
2018-12-29T14:42:10.064Z,6.22
2018-12-29T14:45:13.698Z,6.27
2018-12-29T14:48:16.972Z,6.14
2018-12-29T14:51:20.198Z,6.30
2018-12-29T14:54:23.787Z,6.19
2018-12-29T14:57:27.372Z,6.21
2018-12-29T15:00:30.996Z,6.17
2018-12-29T15:03:34.288Z,6.17
2018-12-29T15:06:37.202Z,6.09
2018-12-29T15:09:40.096Z,6.11
2018-12-29T15:12:43.032Z,6.17
2018-12-29T15:15:46.338Z,6.15
2018-12-29T15:18:49.656Z,6.18
2018-12-29T15:21:52.906Z,6.17
2018-12-29T15:24:55.811Z,6.17
2018-12-29T15:27:59.021Z,6.22
2018-12-29T15:31:01.930Z,6.17
2018-12-29T15:34:05.712Z,6.15
2018-12-29T15:37:09.451Z,6.08
2018-12-29T15:40:12.722Z,6.14
2018-12-29T15:43:16.149Z,6.19
2018-12-29T15:46:19.049Z,6.18
2018-12-29T15:49:21.964Z,6.15
2018-12-29T15:52:25.261Z,6.16
2018-12-29T15:55:28.186Z,6.18
2018-12-29T15:58:31.612Z,6.12
2018-12-29T16:01:34.516Z,6.25
2018-12-29T16:04:37.735Z,6.10
2018-12-29T16:07:40.940Z,6.11
2018-12-29T16:10:44.959Z,6.13
2018-12-29T16:13:49.563Z,6.10
2018-12-29T16:16:52.779Z,6.13
2018-12-29T16:19:55.700Z,6.23
2018-12-29T16:22:59.281Z,6.15
2018-12-29T16:26:02.848Z,6.18
2018-12-29T16:29:06.097Z,6.19
2018-12-29T16:32:09.476Z,6.13
2018-12-29T16:35:13.062Z,6.09
2018-12-29T16:38:16.335Z,6.08
2018-12-29T16:41:19.260Z,6.07
2018-12-29T16:44:22.973Z,6.05
2018-12-29T16:47:26.195Z,6.18
2018-12-29T16:50:29.440Z,6.11
2018-12-29T16:53:32.688Z,6.14
2018-12-29T16:56:35.922Z,6.19
2018-12-29T16:59:38.835Z,6.17
2018-12-29T17:02:42.419Z,6.17
2018-12-29T17:05:46.325Z,6.19
2018-12-29T17:08:49.588Z,6.21
2018-12-29T17:11:52.827Z,6.24
2018-12-29T17:14:56.212Z,6.55
2018-12-29T17:17:59.456Z,6.62
2018-12-29T17:21:02.377Z,6.36
2018-12-29T17:24:05.586Z,6.27
2018-12-29T17:27:08.775Z,6.31
2018-12-29T17:30:12.482Z,6.27
2018-12-29T17:33:15.996Z,6.34
2018-12-29T17:36:19.361Z,6.32
2018-12-29T17:39:22.300Z,6.28
2018-12-29T17:42:25.939Z,6.31
2018-12-29T17:45:30.068Z,6.34
2018-12-29T17:48:35.206Z,6.34
2018-12-29T17:51:39.146Z,6.28
2018-12-29T17:54:42.179Z,6.34
2018-12-29T17:57:45.432Z,6.34
2018-12-29T18:00:48.384Z,6.33
2018-12-29T18:03:51.309Z,6.38
2018-12-29T18:06:54.905Z,6.34
2018-12-29T18:09:57.851Z,6.37
2018-12-29T18:13:00.768Z,6.38
2018-12-29T18:16:03.728Z,6.44
2018-12-29T18:19:07.297Z,6.43
2018-12-29T18:22:10.584Z,6.49
2018-12-29T18:25:13.706Z,6.55
2018-12-29T18:28:17.473Z,6.55
2018-12-29T18:31:21.137Z,6.53
2018-12-29T18:34:24.670Z,6.54
2018-12-29T18:37:28.719Z,6.55
2018-12-29T18:40:32.028Z,6.45
2018-12-29T18:43:34.961Z,6.56
2018-12-29T18:46:38.242Z,6.62
2018-12-29T18:49:41.472Z,6.52
2018-12-29T18:52:44.394Z,6.66
2018-12-29T18:55:49.577Z,6.66
2018-12-29T18:58:53.272Z,6.69
2018-12-29T19:01:57.802Z,6.62
2018-12-29T19:05:01.005Z,6.74
2018-12-29T19:08:04.240Z,6.67
2018-12-29T19:11:07.149Z,6.75
2018-12-29T19:14:10.065Z,6.72
2018-12-29T19:17:13.772Z,6.69
2018-12-29T19:20:17.331Z,6.74
2018-12-29T19:23:20.352Z,6.77
2018-12-29T19:26:23.986Z,6.77
2018-12-29T19:29:27.340Z,6.88
2018-12-29T19:32:30.441Z,6.85
2018-12-29T19:35:34.071Z,6.91
2018-12-29T19:38:37.015Z,6.83
2018-12-29T19:41:46.630Z,6.88
2018-12-29T19:44:45.503Z,6.82
2018-12-29T19:52:48.708Z,7.06
2018-12-29T19:56:04.324Z,7.04
2018-12-29T19:59:26.697Z,7.03
2018-12-29T20:02:41.740Z,7.00
2018-12-29T20:06:11.202Z,6.65
2018-12-29T20:09:28.141Z,7.20
2018-12-29T20:12:50.932Z,7.13
2018-12-29T20:16:28.169Z,7.29
2018-12-29T20:19:50.876Z,7.26
2018-12-29T20:23:06.644Z,7.29
2018-12-29T20:26:29.011Z,7.34
2018-12-29T20:29:44.512Z,7.42
2018-12-29T20:33:06.841Z,7.47
2018-12-29T20:36:22.812Z,7.49
2018-12-29T20:39:38.481Z,7.58
2018-12-29T20:42:52.395Z,7.67
2018-12-29T20:46:14.863Z,7.75
2018-12-29T20:49:18.126Z,7.73
2018-12-29T20:52:40.512Z,7.86
2018-12-29T20:55:55.995Z,7.74
2018-12-29T20:59:11.332Z,7.77
2018-12-29T21:02:34.064Z,7.77
2018-12-29T21:05:49.694Z,7.80
2018-12-29T21:09:12.010Z,7.78
2018-12-29T21:12:25.152Z,7.78
2018-12-29T21:15:38.827Z,7.82
2018-12-29T21:19:01.769Z,7.89
2018-12-29T21:22:17.083Z,7.82
2018-12-29T21:25:32.098Z,7.80
2018-12-29T21:28:47.175Z,7.81
2018-12-29T21:32:02.376Z,7.88
2018-12-29T21:35:17.966Z,7.84
2018-12-29T21:38:31.170Z,7.90
2018-12-29T21:41:53.826Z,7.82
2018-12-29T21:45:09.404Z,7.88
2018-12-29T21:48:22.823Z,7.70
2018-12-29T21:51:36.081Z,7.67
2018-12-29T21:54:58.729Z,7.60
2018-12-29T21:58:20.107Z,7.56
2018-12-29T22:01:43.076Z,7.54
2018-12-29T22:04:56.520Z,7.53
2018-12-29T22:08:18.868Z,7.56
2018-12-29T22:11:32.603Z,7.48
2018-12-29T22:14:55.202Z,7.60
2018-12-29T22:18:08.652Z,7.52
2018-12-29T22:21:31.366Z,7.57
2018-12-29T22:24:44.686Z,7.59
2018-12-29T22:31:41.158Z,7.81
2018-12-29T22:34:54.436Z,7.61
2018-12-29T22:38:07.706Z,7.51
2018-12-29T22:41:21.150Z,7.55
2018-12-29T22:44:34.798Z,7.53
2018-12-29T22:47:57.169Z,7.53
2018-12-29T22:51:10.367Z,7.55
2018-12-29T22:54:32.714Z,7.51
2018-12-29T22:57:46.170Z,7.49
2018-12-29T23:01:08.503Z,7.55
2018-12-29T23:04:43.804Z,7.52
2018-12-29T23:08:06.611Z,7.54
2018-12-29T23:11:21.735Z,7.59
2018-12-29T23:14:36.863Z,7.55
2018-12-29T23:17:50.866Z,7.51
2018-12-29T23:21:13.536Z,7.55
2018-12-29T23:24:28.473Z,7.57
2018-12-29T23:27:43.975Z,7.52
2018-12-29T23:30:59.330Z,7.53
2018-12-29T23:34:14.451Z,7.55
2018-12-29T23:37:30.094Z,7.58
2018-12-29T23:40:45.940Z,7.57
2018-12-29T23:44:01.238Z,7.52
2018-12-29T23:47:16.782Z,7.58
2018-12-29T23:50:32.773Z,7.55
2018-12-29T23:53:46.776Z,7.57
2018-12-29T23:57:09.494Z,7.60
